createdAt,value
2023-01-11T00:00:29.806Z,81.38
2023-01-11T00:03:20.312Z,81.72
2023-01-11T00:05:49.655Z,81.94
2023-01-11T00:08:21.467Z,81.60
2023-01-11T00:10:54.563Z,81.32
2023-01-11T00:13:24.002Z,81.72
2023-01-11T00:15:56.285Z,81.68
2023-01-11T00:18:25.896Z,81.30
2023-01-11T00:20:57.476Z,81.43
2023-01-11T00:23:27.105Z,81.60
2023-01-11T00:25:56.602Z,81.59
2023-01-11T00:28:25.737Z,81.59
2023-01-11T00:30:55.470Z,81.31
2023-01-11T00:33:24.728Z,81.19
2023-01-11T00:35:54.935Z,80.93
2023-01-11T00:38:46.064Z,80.91
2023-01-11T00:41:35.137Z,80.83
2023-01-11T00:44:23.929Z,80.75
2023-01-11T00:47:19.219Z,81.20
2023-01-11T00:49:52.075Z,80.89
2023-01-11T00:52:21.302Z,80.80
2023-01-11T00:54:51.060Z,80.43
2023-01-11T00:57:23.569Z,80.13
2023-01-11T00:59:53.063Z,80.26
2023-01-11T01:02:22.797Z,80.41
2023-01-11T01:04:52.888Z,80.43
2023-01-11T01:07:22.821Z,80.50
2023-01-11T01:09:52.359Z,80.64
2023-01-11T01:12:36.587Z,80.84
2023-01-11T01:15:07.236Z,81.23
2023-01-11T01:17:36.898Z,81.21
2023-01-11T01:20:08.814Z,80.59
2023-01-11T01:22:37.772Z,80.43
2023-01-11T01:25:16.723Z,80.13
2023-01-11T01:27:51.980Z,80.28
2023-01-11T01:30:21.546Z,80.28
2023-01-11T01:32:50.949Z,80.53
2023-01-11T01:35:23.139Z,80.70
2023-01-11T01:37:52.897Z,80.98
2023-01-11T01:40:22.438Z,80.81
2023-01-11T01:42:55.166Z,80.22
2023-01-11T01:45:27.047Z,79.77
2023-01-11T01:48:00.690Z,79.37
2023-01-11T01:50:34.604Z,79.26
2023-01-11T01:53:09.814Z,79.41
2023-01-11T01:55:46.009Z,79.54
2023-01-11T01:58:23.181Z,80.16
2023-01-11T02:00:53.573Z,80.68
2023-01-11T02:03:26.931Z,80.84
2023-01-11T02:05:59.229Z,80.18
2023-01-11T02:08:35.434Z,79.71
2023-01-11T02:11:26.562Z,79.53
2023-01-11T02:13:58.422Z,79.49
2023-01-11T02:16:27.561Z,79.37
2023-01-11T02:18:58.464Z,79.23
2023-01-11T02:21:46.491Z,79.64
2023-01-11T02:24:45.622Z,79.87
2023-01-11T02:27:45.551Z,80.16
2023-01-11T02:30:25.396Z,79.65
2023-01-11T02:33:02.996Z,79.47
2023-01-11T02:35:47.338Z,79.77
2023-01-11T02:38:28.595Z,79.58
2023-01-11T02:41:07.212Z,80.13
2023-01-11T02:44:05.641Z,80.48
2023-01-11T02:46:46.240Z,80.83
2023-01-11T02:49:31.402Z,80.76
2023-01-11T02:52:10.193Z,80.75
2023-01-11T02:54:43.016Z,81.03
2023-01-11T02:57:13.758Z,81.28
2023-01-11T02:59:43.763Z,81.55
2023-01-11T03:02:12.978Z,81.13
2023-01-11T03:04:42.948Z,81.02
2023-01-11T03:07:29.125Z,80.67
2023-01-11T03:10:15.489Z,81.05
2023-01-11T03:13:08.468Z,81.36
2023-01-11T03:16:10.942Z,81.73
2023-01-11T03:18:52.922Z,80.97
2023-01-11T03:21:48.759Z,80.90
2023-01-11T03:24:31.628Z,80.88
2023-01-11T03:27:12.627Z,80.84
2023-01-11T03:29:48.304Z,81.15
2023-01-11T03:32:26.010Z,81.41
2023-01-11T03:35:12.325Z,81.74
2023-01-11T03:37:57.605Z,81.85
2023-01-11T03:40:33.753Z,81.83
2023-01-11T03:43:12.113Z,81.41
2023-01-11T03:45:48.534Z,81.18
2023-01-11T03:48:27.398Z,80.77
2023-01-11T03:50:59.952Z,81.19
2023-01-11T03:53:33.234Z,81.49
2023-01-11T03:56:06.695Z,81.56
2023-01-11T03:58:36.525Z,81.44
2023-01-11T04:01:21.387Z,82.15
2023-01-11T04:03:53.341Z,82.54
2023-01-11T04:06:24.843Z,82.88
2023-01-11T04:08:54.069Z,82.83
2023-01-11T04:11:22.985Z,82.27
2023-01-11T04:13:52.077Z,82.44
2023-01-11T04:16:21.123Z,82.20
2023-01-11T04:18:50.513Z,81.99
2023-01-11T04:21:19.584Z,81.68
2023-01-11T04:23:48.795Z,81.85
2023-01-11T04:26:17.877Z,82.49
2023-01-11T04:28:50.318Z,82.46
2023-01-11T04:31:26.392Z,81.74
2023-01-11T04:33:55.938Z,82.07
2023-01-11T04:36:25.876Z,82.25
2023-01-11T04:38:55.184Z,81.92
2023-01-11T04:41:46.314Z,81.80
2023-01-11T04:44:19.173Z,81.95
2023-01-11T04:46:50.885Z,81.85
2023-01-11T04:49:19.932Z,82.14
2023-01-11T04:51:51.812Z,82.37
2023-01-11T04:54:21.029Z,82.26
2023-01-11T04:56:50.498Z,82.42
2023-01-11T04:59:20.160Z,83.14
2023-01-11T05:01:49.204Z,82.77
2023-01-11T05:04:18.917Z,83.31
2023-01-11T05:06:48.782Z,83.49
2023-01-11T05:09:19.116Z,83.19
2023-01-11T05:11:51.534Z,82.94
2023-01-11T05:14:20.519Z,83.02
2023-01-11T05:16:49.849Z,82.43
2023-01-11T05:19:18.854Z,82.47
2023-01-11T05:21:50.992Z,82.35
2023-01-11T05:24:20.547Z,82.13
2023-01-11T05:26:53.020Z,82.34
2023-01-11T05:29:22.118Z,82.61
2023-01-11T05:31:57.546Z,82.19
2023-01-11T05:34:26.865Z,81.91
2023-01-11T05:36:56.120Z,81.47
2023-01-11T05:39:26.915Z,81.14
2023-01-11T05:41:56.659Z,80.97
2023-01-11T05:44:47.125Z,80.94
2023-01-11T05:47:22.437Z,81.38
2023-01-11T05:49:51.545Z,81.30
2023-01-11T05:52:21.512Z,82.30
2023-01-11T05:54:50.407Z,82.63
2023-01-11T05:57:19.756Z,82.88
2023-01-11T05:59:50.654Z,83.21
2023-01-11T06:02:23.490Z,82.66
2023-01-11T06:04:55.695Z,83.27
2023-01-11T06:07:25.109Z,83.30
2023-01-11T06:09:57.776Z,83.48
2023-01-11T06:12:26.951Z,83.31
2023-01-11T06:14:56.293Z,83.78
2023-01-11T06:17:25.963Z,84.43
2023-01-11T06:19:55.189Z,84.13
2023-01-11T06:22:24.181Z,84.62
2023-01-11T06:24:53.296Z,83.44
2023-01-11T06:27:22.439Z,84.14
2023-01-11T06:29:54.664Z,83.67
2023-01-11T06:32:23.911Z,85.08
2023-01-11T06:34:53.669Z,85.05
2023-01-11T06:37:52.876Z,84.13
2023-01-11T06:40:21.861Z,83.89
2023-01-11T06:42:53.616Z,83.51
2023-01-11T06:45:22.744Z,83.50
2023-01-11T06:47:54.948Z,82.81
2023-01-11T06:50:24.550Z,82.66
2023-01-11T06:52:58.454Z,82.81
2023-01-11T06:55:29.299Z,83.15
2023-01-11T06:57:58.815Z,83.56
2023-01-11T07:00:54.107Z,83.76
2023-01-11T07:03:24.324Z,83.69
2023-01-11T07:05:56.297Z,84.30
2023-01-11T07:08:29.206Z,83.66
2023-01-11T07:10:59.003Z,83.77
2023-01-11T07:13:28.979Z,84.35
2023-01-11T07:15:59.836Z,84.70
2023-01-11T07:18:32.935Z,84.12
2023-01-11T07:21:03.257Z,84.43
2023-01-11T07:23:35.951Z,83.98
2023-01-11T07:26:06.433Z,84.65
2023-01-11T07:28:35.760Z,85.19
2023-01-11T07:31:05.427Z,85.39
2023-01-11T07:33:38.385Z,85.54
2023-01-11T07:36:08.866Z,85.13
2023-01-11T07:38:39.699Z,85.33
2023-01-11T07:41:22.363Z,85.89
2023-01-11T07:43:52.190Z,86.17
2023-01-11T07:46:22.511Z,85.86
2023-01-11T07:48:56.682Z,85.79
2023-01-11T07:51:28.639Z,85.49
2023-01-11T07:54:02.426Z,85.45
2023-01-11T07:56:35.293Z,85.74
2023-01-11T07:59:05.815Z,85.64
2023-01-11T08:01:34.885Z,85.40
2023-01-11T08:04:04.609Z,85.04
2023-01-11T08:06:33.655Z,84.98
2023-01-11T08:09:03.159Z,84.68
2023-01-11T08:11:55.626Z,84.55
2023-01-11T08:14:41.504Z,84.22
2023-01-11T08:17:24.878Z,84.01
2023-01-11T08:19:56.071Z,84.78
2023-01-11T08:22:25.118Z,84.37
2023-01-11T08:24:54.679Z,84.03
2023-01-11T08:27:24.412Z,83.77
2023-01-11T08:29:54.090Z,83.46
2023-01-11T08:32:30.057Z,83.81
2023-01-11T08:34:59.872Z,83.93
2023-01-11T08:37:28.045Z,83.87
2023-01-11T08:40:01.046Z,83.25
2023-01-11T08:42:33.987Z,83.04
2023-01-11T08:45:03.229Z,82.77
2023-01-11T08:47:32.931Z,82.16
2023-01-11T08:50:02.302Z,81.73
2023-01-11T08:52:31.402Z,82.27
2023-01-11T08:55:01.078Z,82.22
2023-01-11T08:57:30.378Z,81.65
2023-01-11T09:00:02.962Z,80.88
2023-01-11T09:02:34.450Z,80.22
2023-01-11T09:05:13.012Z,80.25
2023-01-11T09:07:51.146Z,80.45
2023-01-11T09:10:20.648Z,80.92
2023-01-11T09:12:52.677Z,80.59
2023-01-11T09:15:26.029Z,79.50
2023-01-11T09:17:57.990Z,79.19
2023-01-11T09:20:31.480Z,78.87
2023-01-11T09:23:00.931Z,79.27
2023-01-11T09:25:30.189Z,79.19
2023-01-11T09:27:59.743Z,79.12
2023-01-11T09:30:29.093Z,79.26
2023-01-11T09:33:00.414Z,79.01
2023-01-11T09:35:29.595Z,78.20
2023-01-11T09:37:59.816Z,77.79
2023-01-11T09:40:41.726Z,78.09
2023-01-11T09:43:14.447Z,77.95
2023-01-11T09:45:47.847Z,77.88
2023-01-11T09:48:36.577Z,77.14
2023-01-11T09:51:06.348Z,76.77
2023-01-11T09:53:37.857Z,77.03
2023-01-11T09:56:16.394Z,77.04
2023-01-11T09:59:05.265Z,76.59
2023-01-11T10:01:45.303Z,76.69
2023-01-11T10:05:02.808Z,76.55
2023-01-11T10:07:49.335Z,75.73
2023-01-11T10:18:27.364Z,75.46
2023-01-11T10:19:48.763Z,74.85
2023-01-11T10:22:33.283Z,74.34
2023-01-11T10:25:11.475Z,74.01
2023-01-11T10:27:57.213Z,73.83
2023-01-11T10:30:50.019Z,73.43
2023-01-11T10:33:49.335Z,72.62
2023-01-11T10:36:55.897Z,72.46
2023-01-11T10:39:50.617Z,72.25
2023-01-11T10:42:30.016Z,71.92
2023-01-11T10:45:04.610Z,70.75
2023-01-11T10:47:40.869Z,71.25
2023-01-11T10:50:21.733Z,70.77
2023-01-11T10:52:56.035Z,71.24
2023-01-11T10:58:13.411Z,69.86
2023-01-11T11:01:01.157Z,69.81
2023-01-11T11:03:48.876Z,69.55
2023-01-11T11:06:38.953Z,68.49
2023-01-11T11:09:18.237Z,68.38
2023-01-11T11:12:02.302Z,68.00
2023-01-11T11:14:43.053Z,67.79
2023-01-11T11:17:31.089Z,67.14
2023-01-11T11:20:03.769Z,65.90
2023-01-11T11:22:33.131Z,65.91
2023-01-11T11:25:07.865Z,65.61
2023-01-11T11:27:41.318Z,65.10
2023-01-11T11:30:26.168Z,64.86
2023-01-11T11:33:00.690Z,65.16
2023-01-11T11:35:40.692Z,65.14
2023-01-11T11:38:22.224Z,64.80
2023-01-11T11:41:05.200Z,62.99
2023-01-11T11:43:35.487Z,62.96
2023-01-11T11:46:22.610Z,63.67
2023-01-11T11:49:20.227Z,62.94
2023-01-11T11:51:56.632Z,62.56
2023-01-11T11:54:42.550Z,62.38
2023-01-11T11:57:28.513Z,62.25
2023-01-11T12:00:07.156Z,62.62
2023-01-11T12:02:54.752Z,61.79
2023-01-11T12:05:24.875Z,62.10
2023-01-11T12:07:59.176Z,62.01
2023-01-11T12:10:31.302Z,61.86
2023-01-11T12:13:02.725Z,61.77
2023-01-11T12:15:43.330Z,61.47
2023-01-11T12:18:27.231Z,62.29
2023-01-11T12:20:56.443Z,61.69
2023-01-11T12:23:26.834Z,61.43
2023-01-11T12:26:12.406Z,61.62
2023-01-11T12:29:26.191Z,61.72
2023-01-11T12:32:08.259Z,61.95
2023-01-11T12:35:01.456Z,61.54
2023-01-11T12:37:53.763Z,61.78
2023-01-11T12:40:34.360Z,61.56
2023-01-11T12:43:42.658Z,61.81
2023-01-11T12:46:23.688Z,61.56
2023-01-11T12:49:13.450Z,62.06
2023-01-11T12:52:03.833Z,61.97
2023-01-11T12:54:53.699Z,61.55
2023-01-11T12:57:31.293Z,62.23
2023-01-11T13:00:15.935Z,62.44
2023-01-11T13:03:30.800Z,62.78
2023-01-11T13:06:21.800Z,62.60
2023-01-11T13:09:07.696Z,63.08
2023-01-11T13:11:51.571Z,63.17
2023-01-11T13:14:37.007Z,63.26
2023-01-11T13:17:20.796Z,63.59
2023-01-11T13:20:00.836Z,63.31
2023-01-11T13:22:36.462Z,63.38
2023-01-11T13:25:15.710Z,63.24
2023-01-11T13:28:00.479Z,63.95
2023-01-11T13:30:31.707Z,64.43
2023-01-11T13:33:06.811Z,65.00
2023-01-11T13:35:42.733Z,65.01
2023-01-11T13:38:25.182Z,65.18
2023-01-11T13:41:00.379Z,64.89
2023-01-11T13:43:41.669Z,65.66
2023-01-11T13:46:21.354Z,65.55
2023-01-11T13:49:04.368Z,65.23
2023-01-11T13:51:43.019Z,65.83
2023-01-11T13:54:29.334Z,66.27
2023-01-11T13:57:11.859Z,66.78
2023-01-11T13:59:49.554Z,66.77
2023-01-11T14:02:33.362Z,66.38
2023-01-11T14:05:12.109Z,66.24
2023-01-11T14:07:55.523Z,66.53
2023-01-11T14:10:39.937Z,66.87
2023-01-11T14:13:50.279Z,67.04
2023-01-11T14:16:36.292Z,67.29
2023-01-11T14:19:14.869Z,67.65
2023-01-11T14:21:57.583Z,68.26
2023-01-11T14:24:31.553Z,68.83
2023-01-11T14:27:24.602Z,68.36
2023-01-11T14:30:10.788Z,67.99
2023-01-11T14:33:26.281Z,68.02
2023-01-11T14:36:45.068Z,67.96
2023-01-11T14:39:41.163Z,68.33
2023-01-11T14:42:49.195Z,68.17
2023-01-11T14:45:31.284Z,68.24
2023-01-11T14:48:27.395Z,69.14
2023-01-11T14:51:18.627Z,69.24
2023-01-11T14:53:54.261Z,69.04
2023-01-11T14:56:52.888Z,68.74
2023-01-11T14:59:37.235Z,68.93
2023-01-11T15:02:29.380Z,68.41
2023-01-11T15:05:27.384Z,68.38
2023-01-11T15:08:18.533Z,68.63
2023-01-11T15:10:55.517Z,68.59
2023-01-11T15:13:28.094Z,69.31
2023-01-11T15:16:28.034Z,69.37
2023-01-11T15:18:57.708Z,68.73
2023-01-11T15:21:30.087Z,68.37
2023-01-11T15:24:02.885Z,69.07
2023-01-11T15:26:31.863Z,69.03
2023-01-11T15:29:02.431Z,69.29
2023-01-11T15:31:50.589Z,69.36
2023-01-11T15:34:42.565Z,69.26
2023-01-11T15:37:35.965Z,69.34
2023-01-11T15:40:25.998Z,69.68
2023-01-11T15:43:28.531Z,70.02
2023-01-11T15:46:52.455Z,69.61
2023-01-11T15:49:56.950Z,69.84
2023-01-11T15:53:06.290Z,69.38
2023-01-11T15:56:11.319Z,69.42
2023-01-11T15:59:07.707Z,69.27
2023-01-11T16:01:55.547Z,69.95
2023-01-11T16:04:32.124Z,70.30
2023-01-11T16:07:12.108Z,70.25
2023-01-11T16:10:11.147Z,69.83
2023-01-11T16:13:09.516Z,70.11
2023-01-11T16:15:51.952Z,70.16
2023-01-11T16:18:34.493Z,70.55
2023-01-11T16:21:05.245Z,71.19
2023-01-11T16:23:37.423Z,71.00
2023-01-11T16:26:17.067Z,71.13
2023-01-11T16:28:51.293Z,70.92
2023-01-11T16:31:20.527Z,71.02
2023-01-11T16:33:53.409Z,70.99
2023-01-11T16:36:23.509Z,71.11
2023-01-11T16:39:07.131Z,71.61
2023-01-11T16:41:45.200Z,71.44
2023-01-11T16:44:41.260Z,70.99
2023-01-11T16:47:26.981Z,70.72
2023-01-11T16:50:18.306Z,70.73
2023-01-11T16:52:55.260Z,70.76
2023-01-11T16:55:30.761Z,71.04
2023-01-11T16:58:05.208Z,71.81
2023-01-11T17:00:39.105Z,71.44
2023-01-11T17:03:23.980Z,71.44
2023-01-11T17:06:27.604Z,70.73
2023-01-11T17:09:06.687Z,70.37
2023-01-11T17:11:44.191Z,70.15
2023-01-11T17:14:40.141Z,70.51
2023-01-11T17:17:11.118Z,70.86
2023-01-11T17:19:45.794Z,70.67
2023-01-11T17:22:21.855Z,70.28
2023-01-11T17:24:55.136Z,70.20
2023-01-11T17:27:30.773Z,70.17
2023-01-11T17:30:02.399Z,70.17
2023-01-11T17:32:36.605Z,71.10
2023-01-11T17:35:14.492Z,70.79
2023-01-11T17:37:44.586Z,69.74
2023-01-11T17:40:26.457Z,69.72
2023-01-11T17:43:22.217Z,69.48
2023-01-11T17:45:55.089Z,69.64
2023-01-11T17:48:32.180Z,69.39
2023-01-11T17:51:03.089Z,69.65
2023-01-11T17:53:35.034Z,70.36
2023-01-11T17:56:07.349Z,70.17
2023-01-11T17:58:37.916Z,69.54
2023-01-11T18:01:25.590Z,68.99
2023-01-11T18:03:57.305Z,68.58
2023-01-11T18:06:32.514Z,68.46
2023-01-11T18:09:04.861Z,68.20
2023-01-11T18:11:40.996Z,67.83
2023-01-11T18:14:21.164Z,67.65
2023-01-11T18:17:04.309Z,67.71
2023-01-11T18:19:38.262Z,67.81
2023-01-11T18:22:31.464Z,68.24
2023-01-11T18:25:14.651Z,68.00
2023-01-11T18:27:46.182Z,67.55
2023-01-11T18:30:40.741Z,67.45
2023-01-11T18:33:15.278Z,66.68
2023-01-11T18:35:57.573Z,66.99
2023-01-11T18:38:33.513Z,66.69
2023-01-11T18:41:25.367Z,66.79
2023-01-11T18:43:55.312Z,66.82
2023-01-11T18:46:24.753Z,67.04
2023-01-11T18:49:00.472Z,67.09
2023-01-11T18:51:33.881Z,66.16
2023-01-11T18:54:05.110Z,66.27
2023-01-11T18:56:34.357Z,66.64
2023-01-11T18:59:03.614Z,66.32
2023-01-11T19:01:46.869Z,67.18
2023-01-11T19:04:30.215Z,67.14
2023-01-11T19:07:00.336Z,67.14
2023-01-11T19:09:30.130Z,66.87
2023-01-11T19:11:59.437Z,66.90
2023-01-11T19:14:28.944Z,66.65
2023-01-11T19:16:58.104Z,66.64
2023-01-11T19:19:30.277Z,66.69
2023-01-11T19:22:00.024Z,66.72
2023-01-11T19:24:29.082Z,67.67
2023-01-11T19:26:58.635Z,68.18
2023-01-11T19:29:28.189Z,68.17
2023-01-11T19:32:00.448Z,68.59
2023-01-11T19:34:32.574Z,68.81
2023-01-11T19:37:05.418Z,68.70
2023-01-11T19:39:35.700Z,68.07
2023-01-11T19:42:05.440Z,68.14
2023-01-11T19:44:38.371Z,68.13
2023-01-11T19:47:12.043Z,68.98
2023-01-11T19:49:44.027Z,68.58
2023-01-11T19:52:18.450Z,68.57
2023-01-11T19:54:48.441Z,68.57
2023-01-11T19:57:19.774Z,68.53
2023-01-11T19:59:49.865Z,68.70
2023-01-11T20:02:19.535Z,69.68
2023-01-11T20:04:54.952Z,70.24
2023-01-11T20:07:30.143Z,70.42
2023-01-11T20:09:59.547Z,70.20
2023-01-11T20:12:29.451Z,70.32
2023-01-11T20:15:00.752Z,70.05
2023-01-11T20:17:36.012Z,70.46
2023-01-11T20:20:07.193Z,71.41
2023-01-11T20:22:43.005Z,71.24
2023-01-11T20:25:12.265Z,70.93
2023-01-11T20:27:44.605Z,71.26
2023-01-11T20:30:14.823Z,71.45
2023-01-11T20:32:44.528Z,71.99
2023-01-11T20:35:13.615Z,72.01
2023-01-11T20:37:43.460Z,71.74
2023-01-11T20:40:14.505Z,71.43
2023-01-11T20:42:44.458Z,71.38
2023-01-11T20:45:14.165Z,71.44
2023-01-11T20:47:43.809Z,71.99
2023-01-11T20:50:13.634Z,72.12
2023-01-11T20:52:43.126Z,71.72
2023-01-11T20:55:16.029Z,71.11
2023-01-11T20:57:47.623Z,71.32
2023-01-11T21:00:19.533Z,71.47
2023-01-11T21:02:51.391Z,71.72
2023-01-11T21:05:26.972Z,72.50
2023-01-11T21:07:55.976Z,72.63
2023-01-11T21:10:31.617Z,72.52
2023-01-11T21:13:02.165Z,72.47
2023-01-11T21:15:36.059Z,72.42
2023-01-11T21:18:06.786Z,72.88
2023-01-11T21:20:39.044Z,74.08
2023-01-11T21:23:08.547Z,74.43
2023-01-11T21:25:38.909Z,74.77
2023-01-11T21:28:08.001Z,74.85
2023-01-11T21:30:38.347Z,75.23
2023-01-11T21:33:07.735Z,76.18
2023-01-11T21:35:37.015Z,76.08
2023-01-11T21:38:06.021Z,76.20
2023-01-11T21:40:35.279Z,76.73
2023-01-11T21:43:07.483Z,77.25
2023-01-11T21:45:36.985Z,78.15
2023-01-11T21:48:06.899Z,78.06
2023-01-11T21:50:39.170Z,78.36
2023-01-11T21:53:08.461Z,78.27
2023-01-11T21:55:37.776Z,78.33
2023-01-11T21:58:09.737Z,79.32
2023-01-11T22:00:38.927Z,79.71
2023-01-11T22:03:11.421Z,79.69
2023-01-11T22:05:43.677Z,79.69
2023-01-11T22:08:13.172Z,80.49
2023-01-11T22:10:42.393Z,81.10
2023-01-11T22:13:14.561Z,81.69
2023-01-11T22:15:43.915Z,81.72
2023-01-11T22:18:15.994Z,81.69
2023-01-11T22:20:45.601Z,82.19
2023-01-11T22:23:14.834Z,82.39
2023-01-11T22:25:44.603Z,82.49
2023-01-11T22:28:15.999Z,82.44
2023-01-11T22:30:45.249Z,82.51
2023-01-11T22:33:14.362Z,82.86
2023-01-11T22:35:53.666Z,82.80
2023-01-11T22:38:25.978Z,82.73
2023-01-11T22:40:55.296Z,82.71
2023-01-11T22:43:25.497Z,82.64
2023-01-11T22:46:00.487Z,83.44
2023-01-11T22:48:30.915Z,83.16
2023-01-11T22:50:59.743Z,83.11
2023-01-11T22:53:34.813Z,82.57
2023-01-11T22:56:04.597Z,82.81
2023-01-11T22:58:37.381Z,83.25
2023-01-11T23:01:14.985Z,83.52
2023-01-11T23:03:45.281Z,83.17
2023-01-11T23:06:27.974Z,83.32
2023-01-11T23:09:01.224Z,83.48
2023-01-11T23:11:53.802Z,83.50
2023-01-11T23:14:29.415Z,83.51
2023-01-11T23:17:05.071Z,83.47
2023-01-11T23:19:40.007Z,83.28
2023-01-11T23:22:15.123Z,83.69
2023-01-11T23:24:44.430Z,83.61
2023-01-11T23:27:13.801Z,83.76
2023-01-11T23:29:43.045Z,83.24
2023-01-11T23:32:11.973Z,83.75
2023-01-11T23:34:41.350Z,84.10
2023-01-11T23:37:13.693Z,84.04
2023-01-11T23:39:43.406Z,83.99
2023-01-11T23:42:27.592Z,84.57
2023-01-11T23:45:05.735Z,84.80
2023-01-11T23:47:35.017Z,84.78
2023-01-11T23:50:04.993Z,84.93
2023-01-11T23:52:36.039Z,84.69
2023-01-11T23:55:07.596Z,84.73
2023-01-11T23:58:00.290Z,84.35
